Time;durP1;ratioP1;P1;durP2;ratioP2;P2;SDS_P1;SDS_P2;PMS_P1;PMS_P2;Temp;Humidity;BMP_temperature;BMP_pressure;BME280_temperature;BME280_humidity;BME280_pressure;Samples;Min_cycle;Max_cycle;Signal;HPM_P1;HPM_P2
2021/09/12 00:01:35;;;;;;;;;;;;;;;17.37;96.87;101703.50;5055902;28;19971;-52
2021/09/12 00:04:02;;;;;;;;;;;;;;;17.38;96.88;101702.53;5053642;28;19972;-52
2021/09/12 00:06:29;;;;;;;;;;;;;;;17.37;97.29;101705.34;5054052;28;19925;-54
2021/09/12 00:08:55;;;;;;;;;;;;;;;17.38;97.30;101691.03;5054806;28;20796;-54
2021/09/12 00:11:22;;;;;;;;;;;;;;;17.41;97.21;101698.78;5052774;28;20342;-52
2021/09/12 00:13:49;;;;;;;;;;;;;;;17.38;97.53;101694.56;5050794;28;19925;-52
2021/09/12 00:16:18;;;;;;;;;;;;;;;17.40;97.73;101695.28;5052066;28;20359;-55
2021/09/12 00:18:45;;;;;;;;;;;;;;;17.45;97.20;101688.75;5052950;28;19924;-53
2021/09/12 00:21:12;;;;;;;;;;;;;;;17.37;97.27;101684.91;5051762;28;19928;-54
2021/09/12 00:23:38;;;;;;;;;;;;;;;17.30;97.59;101688.16;5053171;28;19968;-55
2021/09/12 00:26:05;;;;;;;;;;;;;;;17.33;97.90;101675.47;5054423;28;19925;-52
2021/09/12 00:28:31;;;;;;;;;;;;;;;17.34;97.92;101676.31;5051941;28;19986;-53
2021/09/12 00:30:58;;;;;;;;;;;;;;;17.31;98.02;101673.91;5053254;28;19975;-43
2021/09/12 00:33:27;;;;;;;;;;;;;;;17.32;98.46;101678.25;5051326;28;20034;-44
2021/09/12 00:35:53;;;;;;;;;;;;;;;17.32;98.06;101678.25;5052840;28;19928;-43
2021/09/12 00:38:20;;;;;;;;;;;;;;;17.33;97.90;101680.78;5053888;28;19925;-53
2021/09/12 00:40:46;;;;;;;;;;;;;;;17.29;98.01;101679.34;5053997;28;20396;-54
2021/09/12 00:43:13;;;;;;;;;;;;;;;17.29;97.94;101678.50;5054766;28;20021;-52
2021/09/12 00:45:40;;;;;;;;;;;;;;;17.28;97.61;101684.78;5054706;28;19929;-50
2021/09/12 00:48:07;;;;;;;;;;;;;;;17.20;97.80;101672.94;5052716;28;20534;-51
2021/09/12 00:50:33;;;;;;;;;;;;;;;17.24;97.84;101676.22;5050955;28;19925;-54
2021/09/12 00:53:00;;;;;;;;;;;;;;;17.24;97.81;101671.72;5051115;28;19935;-53
2021/09/12 00:55:27;;;;;;;;;;;;;;;17.27;97.65;101670.66;5052053;28;19929;-51
2021/09/12 00:57:53;;;;;;;;;;;;;;;17.23;97.79;101666.53;5049827;28;19936;-51
2021/09/12 01:00:20;;;;;;;;;;;;;;;17.22;97.66;101670.19;5054105;28;19939;-53
2021/09/12 01:02:47;;;;;;;;;;;;;;;17.22;96.97;101665.72;5055196;28;19979;-52
2021/09/12 01:05:14;;;;;;;;;;;;;;;17.18;97.06;101664.28;5053560;28;19931;-51
2021/09/12 01:07:41;;;;;;;;;;;;;;;17.16;97.24;101663.53;5052510;28;19925;-50
2021/09/12 01:10:09;;;;;;;;;;;;;;;17.19;97.27;101665.09;5052189;28;19924;-52
2021/09/12 01:12:35;;;;;;;;;;;;;;;17.19;97.36;101659.78;5049122;28;20398;-53
2021/09/12 01:15:02;;;;;;;;;;;;;;;17.17;97.19;101659.91;5036830;28;19928;-51
2021/09/12 01:17:29;;;;;;;;;;;;;;;17.12;97.27;101656.78;5052389;28;19940;-55
2021/09/12 01:19:56;;;;;;;;;;;;;;;17.11;97.08;101660.44;5052013;28;19925;-50
2021/09/12 01:22:22;;;;;;;;;;;;;;;17.13;97.27;101657.63;5052324;28;19929;-52
2021/09/12 01:24:49;;;;;;;;;;;;;;;17.15;97.35;101671.63;5052475;28;19970;-49
2021/09/12 01:27:16;;;;;;;;;;;;;;;17.15;96.68;101663.66;5049256;28;19933;-53
2021/09/12 01:29:43;;;;;;;;;;;;;;;17.11;96.91;101657.75;5051850;28;19928;-51
2021/09/12 01:32:09;;;;;;;;;;;;;;;17.11;97.33;101664.88;5034193;28;19984;-53
2021/09/12 01:34:36;;;;;;;;;;;;;;;17.06;97.42;101665.25;5053046;28;19951;-54
2021/09/12 01:37:02;;;;;;;;;;;;;;;17.04;96.73;101667.16;5054588;28;19928;-50
2021/09/12 01:39:29;;;;;;;;;;;;;;;17.00;97.06;101673.69;5050989;28;20493;-52
2021/09/12 01:41:56;;;;;;;;;;;;;;;17.05;96.75;101667.03;5050113;28;19929;-53
2021/09/12 01:44:24;;;;;;;;;;;;;;;17.04;96.08;101665.38;5053379;28;19928;-52
2021/09/12 01:46:55;;;;;;;;;;;;;;;17.01;96.01;101676.22;5054332;28;20299;-50
2021/09/12 01:49:23;;;;;;;;;;;;;;;17.03;96.01;101668.16;5051213;28;19925;-54
2021/09/12 01:51:50;;;;;;;;;;;;;;;17.00;96.21;101663.06;5050415;28;20384;-52
2021/09/12 01:54:17;;;;;;;;;;;;;;;16.94;96.03;101661.75;5035786;28;19998;-54
2021/09/12 01:56:44;;;;;;;;;;;;;;;16.96;95.72;101666.94;5050725;28;20383;-54
2021/09/12 01:59:10;;;;;;;;;;;;;;;16.87;95.42;101664.00;5050777;28;19971;-50
2021/09/12 02:01:37;;;;;;;;;;;;;;;16.85;95.70;101658.00;5052797;28;19947;-51
2021/09/12 02:04:04;;;;;;;;;;;;;;;16.81;94.98;101668.97;5050956;28;20019;-53
2021/09/12 02:06:31;;;;;;;;;;;;;;;16.85;94.30;101670.41;5050077;28;19925;-50
2021/09/12 02:08:57;;;;;;;;;;;;;;;16.75;94.38;101664.16;5049704;28;19929;-54
2021/09/12 02:11:24;;;;;;;;;;;;;;;16.66;93.97;101669.22;5033409;28;19978;-53
2021/09/12 02:13:53;;;;;;;;;;;;;;;16.70;93.76;101670.66;5031719;28;19925;-52
2021/09/12 02:16:21;;;;;;;;;;;;;;;16.61;93.97;101668.72;5051226;28;19925;-51
2021/09/12 02:18:48;;;;;;;;;;;;;;;16.52;94.09;101680.06;5053062;28;19924;-51
2021/09/12 02:21:14;;;;;;;;;;;;;;;16.53;93.66;101665.81;5050487;28;20359;-53
2021/09/12 02:23:41;;;;;;;;;;;;;;;16.50;93.79;101680.19;5051178;28;19932;-52
2021/09/12 02:26:07;;;;;;;;;;;;;;;16.46;94.43;101675.22;5052421;28;19928;-53
2021/09/12 02:28:34;;;;;;;;;;;;;;;16.44;94.33;101674.50;5051027;28;19925;-52
2021/09/12 02:31:01;;;;;;;;;;;;;;;16.39;94.43;101675.69;5051120;28;19928;-51
2021/09/12 02:33:27;;;;;;;;;;;;;;;16.35;94.50;101671.56;5050383;28;19928;-53
2021/09/12 02:35:54;;;;;;;;;;;;;;;16.36;93.90;101681.25;5050250;28;19928;-53
2021/09/12 02:38:20;;;;;;;;;;;;;;;16.36;94.08;101681.25;5050606;28;19924;-53
2021/09/12 02:40:47;;;;;;;;;;;;;;;16.33;94.25;101680.63;5050072;28;20346;-51
2021/09/12 02:43:14;;;;;;;;;;;;;;;16.22;94.17;101687.59;5047772;28;19924;-54
2021/09/12 02:45:40;;;;;;;;;;;;;;;16.20;94.98;101681.56;5052720;28;19952;-54
2021/09/12 02:48:07;;;;;;;;;;;;;;;16.19;95.08;101679.03;5053223;28;19924;-54
2021/09/12 02:50:34;;;;;;;;;;;;;;;16.20;94.70;101678.91;5050006;28;19986;-45
2021/09/12 02:53:00;;;;;;;;;;;;;;;16.15;94.40;101678.41;5050571;28;19929;-44
2021/09/12 02:55:27;;;;;;;;;;;;;;;16.12;93.74;101677.81;5052578;28;19932;-43
2021/09/12 02:57:53;;;;;;;;;;;;;;;16.08;93.49;101681.66;5053043;28;20358;-46
2021/09/12 03:00:20;;;;;;;;;;;;;;;16.01;93.49;101681.25;5051240;28;19964;-45
2021/09/12 03:02:47;;;;;;;;;;;;;;;15.98;93.08;101681.47;5050652;28;19986;-45
2021/09/12 03:05:14;;;;;;;;;;;;;;;15.95;93.57;101690.53;5052443;28;20019;-43
2021/09/12 03:07:41;;;;;;;;;;;;;;;15.97;92.37;101685.09;5050416;28;20299;-45
2021/09/12 03:10:08;;;;;;;;;;;;;;;15.87;92.17;101684.94;5051105;28;19948;-46
2021/09/12 03:12:34;;;;;;;;;;;;;;;15.82;92.58;101685.28;5049855;28;19932;-45
2021/09/12 03:15:01;;;;;;;;;;;;;;;15.75;92.02;101691.09;5050707;28;19925;-45
2021/09/12 03:17:28;;;;;;;;;;;;;;;15.69;92.90;101685.31;5051710;28;19975;-48
2021/09/12 03:19:54;;;;;;;;;;;;;;;15.74;90.68;101676.19;5049835;28;19929;-46
2021/09/12 03:22:21;;;;;;;;;;;;;;;15.67;91.57;101684.56;5049780;28;20391;-49
2021/09/12 03:24:48;;;;;;;;;;;;;;;15.60;91.80;101685.13;5049902;28;19928;-46
2021/09/12 03:27:14;;;;;;;;;;;;;;;15.55;91.61;101685.47;5048377;28;19924;-50
2021/09/12 03:29:41;;;;;;;;;;;;;;;15.47;90.25;101683.38;5052090;28;19925;-44
2021/09/12 03:32:07;;;;;;;;;;;;;;;15.44;91.14;101683.59;5052561;28;20325;-43
2021/09/12 03:34:34;;;;;;;;;;;;;;;15.38;91.60;101681.41;5048833;28;20287;-44
2021/09/12 03:37:01;;;;;;;;;;;;;;;15.26;91.59;101683.13;5050497;28;19925;-44
2021/09/12 03:39:27;;;;;;;;;;;;;;;15.28;92.13;101686.50;5051037;28;19924;-44
2021/09/12 03:41:54;;;;;;;;;;;;;;;15.29;92.37;101687.38;5049883;28;19935;-45
2021/09/12 03:44:21;;;;;;;;;;;;;;;15.25;91.74;101681.44;5047809;28;19974;-43
2021/09/12 03:46:47;;;;;;;;;;;;;;;15.23;91.84;101685.13;5051772;28;19932;-44
2021/09/12 03:49:14;;;;;;;;;;;;;;;15.23;92.17;101678.06;5047778;28;19947;-44
2021/09/12 03:51:40;;;;;;;;;;;;;;;15.14;91.90;101670.75;5051136;28;19932;-44
2021/09/12 03:54:07;;;;;;;;;;;;;;;15.19;91.89;101677.41;5052564;28;19929;-44
2021/09/12 03:56:34;;;;;;;;;;;;;;;15.14;92.59;101681.34;5052798;28;19925;-46
2021/09/12 03:59:00;;;;;;;;;;;;;;;15.10;91.72;101687.84;5051250;28;19929;-42
2021/09/12 04:01:27;;;;;;;;;;;;;;;15.10;91.24;101682.53;5052504;28;19928;-46
2021/09/12 04:03:54;;;;;;;;;;;;;;;15.07;91.39;101680.09;5052224;28;19924;-43
2021/09/12 04:06:20;;;;;;;;;;;;;;;14.98;91.32;101682.47;5052101;28;19932;-43
2021/09/12 04:08:47;;;;;;;;;;;;;;;14.91;91.83;101681.19;5051777;28;19924;-45
2021/09/12 04:11:14;;;;;;;;;;;;;;;14.83;92.40;101673.78;5052179;28;20012;-45
2021/09/12 04:13:40;;;;;;;;;;;;;;;14.85;92.41;101678.97;5052035;28;19924;-43
2021/09/12 04:16:07;;;;;;;;;;;;;;;14.80;92.42;101676.63;5051765;28;19951;-45
2021/09/12 04:18:35;;;;;;;;;;;;;;;14.80;92.86;101673.16;5049447;28;20391;-44
2021/09/12 04:21:01;;;;;;;;;;;;;;;14.77;93.43;101679.50;5049224;28;20395;-46
2021/09/12 04:23:28;;;;;;;;;;;;;;;14.78;93.13;101680.34;5050564;28;20478;-44
2021/09/12 04:25:55;;;;;;;;;;;;;;;14.82;93.65;101672.09;5049370;28;19925;-53
2021/09/12 04:28:21;;;;;;;;;;;;;;;14.78;92.92;101678.56;5051932;28;19925;-52
2021/09/12 04:30:48;;;;;;;;;;;;;;;14.69;93.08;101679.19;5055889;28;19925;-52
2021/09/12 04:33:15;;;;;;;;;;;;;;;14.64;93.78;101684.81;5055643;28;19931;-52
2021/09/12 04:35:41;;;;;;;;;;;;;;;14.59;93.24;101684.25;5037806;28;19924;-49
2021/09/12 04:38:09;;;;;;;;;;;;;;;14.59;93.96;101686.88;5053948;28;19948;-54
2021/09/12 04:40:36;;;;;;;;;;;;;;;14.56;93.42;101683.59;5052884;28;20253;-53
2021/09/12 04:43:03;;;;;;;;;;;;;;;14.52;93.47;101689.09;5051865;28;20027;-53
2021/09/12 04:45:29;;;;;;;;;;;;;;;14.52;94.22;101682.97;5052835;28;19928;-45
2021/09/12 04:47:56;;;;;;;;;;;;;;;14.48;94.09;101686.75;5053294;28;20462;-46
2021/09/12 04:50:23;;;;;;;;;;;;;;;14.48;93.63;101686.75;5053312;28;19928;-44
2021/09/12 04:52:49;;;;;;;;;;;;;;;14.48;93.38;101690.28;5050916;28;19929;-45
2021/09/12 04:55:17;;;;;;;;;;;;;;;14.41;93.35;101694.28;5051486;28;19931;-43
2021/09/12 04:57:44;;;;;;;;;;;;;;;14.35;93.37;101700.00;5050998;28;19974;-47
2021/09/12 05:00:11;;;;;;;;;;;;;;;14.29;93.97;101703.91;5052770;28;20430;-42
2021/09/12 05:02:38;;;;;;;;;;;;;;;14.34;93.66;101709.75;5053491;28;19925;-48
2021/09/12 05:05:06;;;;;;;;;;;;;;;14.28;93.88;101706.66;5054133;28;19931;-42
2021/09/12 05:07:32;;;;;;;;;;;;;;;14.31;93.67;101715.22;5053254;28;19932;-43
2021/09/12 05:09:59;;;;;;;;;;;;;;;14.22;94.46;101718.50;5052401;28;20335;-43
2021/09/12 05:12:28;;;;;;;;;;;;;;;14.20;94.38;101718.56;5052461;28;20310;-43
2021/09/12 05:14:56;;;;;;;;;;;;;;;14.17;94.52;101720.59;5050885;28;19924;-42
2021/09/12 05:17:23;;;;;;;;;;;;;;;14.17;94.46;101725.88;5052109;28;19971;-43
2021/09/12 05:19:53;;;;;;;;;;;;;;;14.10;94.05;101717.50;5019759;28;19925;-53
2021/09/12 05:22:20;;;;;;;;;;;;;;;14.11;94.12;101724.50;5052077;28;19935;-52
2021/09/12 05:24:47;;;;;;;;;;;;;;;14.06;95.05;101728.38;5052854;28;19956;-49
2021/09/12 05:27:13;;;;;;;;;;;;;;;14.12;94.43;101728.81;5050562;28;19983;-51
2021/09/12 05:29:40;;;;;;;;;;;;;;;14.05;95.31;101727.53;5051993;28;19928;-49
2021/09/12 05:32:07;;;;;;;;;;;;;;;14.10;94.90;101728.09;5050648;28;20026;-52
2021/09/12 05:34:33;;;;;;;;;;;;;;;14.12;95.15;101730.63;5049901;28;19929;-49
2021/09/12 05:37:00;;;;;;;;;;;;;;;14.15;94.72;101738.34;5052141;28;19932;-51
2021/09/12 05:39:27;;;;;;;;;;;;;;;14.06;94.64;101723.09;5049986;28;20374;-42
2021/09/12 05:41:53;;;;;;;;;;;;;;;14.06;95.29;101731.03;5051733;28;19929;-50
2021/09/12 05:44:20;;;;;;;;;;;;;;;14.04;95.25;101731.13;5050883;28;20387;-44
2021/09/12 05:46:47;;;;;;;;;;;;;;;14.03;95.43;101740.03;5052133;28;19929;-43
2021/09/12 05:49:14;;;;;;;;;;;;;;;14.05;95.47;101734.63;5050671;28;19987;-43
2021/09/12 05:51:41;;;;;;;;;;;;;;;14.03;95.02;101732.09;5051636;28;19925;-43
2021/09/12 05:54:08;;;;;;;;;;;;;;;13.99;95.43;101736.72;5051371;28;19924;-44
2021/09/12 05:56:34;;;;;;;;;;;;;;;13.95;95.93;101740.53;5033491;28;19925;-42
2021/09/12 05:59:01;;;;;;;;;;;;;;;14.00;95.96;101743.72;5050509;28;20294;-43
2021/09/12 06:01:27;;;;;;;;;;;;;;;13.98;96.21;101740.31;5050050;28;19932;-44
2021/09/12 06:03:54;;;;;;;;;;;;;;;14.02;96.36;101739.16;5051364;28;19932;-42
2021/09/12 06:06:21;;;;;;;;;;;;;;;14.02;96.27;101739.16;5033409;28;19928;-45
2021/09/12 06:08:48;;;;;;;;;;;;;;;14.06;96.53;101739.81;5051114;28;20338;-51
2021/09/12 06:11:14;;;;;;;;;;;;;;;14.09;96.59;101749.34;5049694;28;19925;-50
2021/09/12 06:13:41;;;;;;;;;;;;;;;14.13;96.16;101737.63;5049988;28;19925;-52
2021/09/12 06:16:08;;;;;;;;;;;;;;;14.14;95.97;101744.63;5051445;28;19925;-49
2021/09/12 06:18:35;;;;;;;;;;;;;;;14.14;95.85;101740.16;5050690;28;20433;-51
2021/09/12 06:21:03;;;;;;;;;;;;;;;14.13;96.00;101745.56;5049661;28;19924;-51
2021/09/12 06:23:31;;;;;;;;;;;;;;;14.13;95.57;101745.56;5051018;28;20370;-51
2021/09/12 06:26:02;;;;;;;;;;;;;;;14.12;95.40;101749.97;5049775;28;19960;-50
2021/09/12 06:28:28;;;;;;;;;;;;;;;14.20;95.71;101749.47;5048171;28;19929;-51
2021/09/12 06:30:55;;;;;;;;;;;;;;;14.28;95.59;101757.75;5050989;28;19924;-52
2021/09/12 06:33:22;;;;;;;;;;;;;;;14.41;94.99;101752.50;5050744;28;19924;-49
2021/09/12 06:35:48;;;;;;;;;;;;;;;14.43;94.88;101752.41;5050173;28;20347;-53
2021/09/12 06:38:15;;;;;;;;;;;;;;;14.45;95.15;101753.13;5050822;28;19932;-51
2021/09/12 06:40:43;;;;;;;;;;;;;;;14.49;94.45;101751.97;5050073;28;20277;-49
2021/09/12 06:43:10;;;;;;;;;;;;;;;14.59;94.57;101753.06;5049560;28;19975;-52
2021/09/12 06:45:37;;;;;;;;;;;;;;;14.58;94.33;101759.31;5049502;28;19925;-52
2021/09/12 06:48:04;;;;;;;;;;;;;;;14.65;93.82;101752.66;5050680;28;20264;-54
2021/09/12 06:50:30;;;;;;;;;;;;;;;14.74;93.79;101755.63;5048916;28;19924;-53
2021/09/12 06:52:57;;;;;;;;;;;;;;;14.82;93.52;101745.38;5048524;28;19975;-51
2021/09/12 06:55:24;;;;;;;;;;;;;;;14.88;93.77;101751.09;5048926;28;20396;-52
2021/09/12 06:57:50;;;;;;;;;;;;;;;14.95;92.46;101753.31;5048791;28;19966;-53
2021/09/12 07:00:17;;;;;;;;;;;;;;;14.99;92.62;101746.84;5050035;28;19925;-47
2021/09/12 07:02:44;;;;;;;;;;;;;;;15.04;92.75;101750.03;5032370;28;19940;-52
2021/09/12 07:05:11;;;;;;;;;;;;;;;15.11;92.91;101739.88;5050076;28;19932;-53
2021/09/12 07:07:38;;;;;;;;;;;;;;;15.12;92.79;101736.25;5050236;28;20399;-49
2021/09/12 07:10:05;;;;;;;;;;;;;;;15.13;92.11;101740.59;5048654;28;19935;-53
2021/09/12 07:12:34;;;;;;;;;;;;;;;15.23;91.34;101743.44;5048150;28;19928;-49
2021/09/12 07:15:00;;;;;;;;;;;;;;;15.24;90.22;101739.84;5049823;28;19964;-52
2021/09/12 07:17:27;;;;;;;;;;;;;;;15.31;91.12;101736.66;5049918;28;19939;-51
2021/09/12 07:19:54;;;;;;;;;;;;;;;15.38;89.86;101740.56;5049543;28;19936;-52
2021/09/12 07:22:20;;;;;;;;;;;;;;;15.43;89.55;101740.22;5049445;28;19974;-45
2021/09/12 07:24:47;;;;;;;;;;;;;;;15.53;90.80;101735.94;5048852;28;19947;-46
2021/09/12 07:27:13;;;;;;;;;;;;;;;15.69;89.97;101746.31;5048463;28;19929;-45
2021/09/12 07:29:44;;;;;;;;;;;;;;;15.83;90.41;101747.13;5049330;28;19928;-45
2021/09/12 07:32:11;;;;;;;;;;;;;;;15.96;90.61;101745.25;5049986;28;20375;-44
2021/09/12 07:34:38;;;;;;;;;;;;;;;16.21;89.23;101740.78;5049552;28;19932;-43
2021/09/12 07:37:04;;;;;;;;;;;;;;;16.24;87.60;101740.56;5048810;28;19925;-43
2021/09/12 07:39:31;;;;;;;;;;;;;;;16.37;87.40;101736.03;5048319;28;19985;-45
2021/09/12 07:41:57;;;;;;;;;;;;;;;16.49;87.25;101733.41;5049343;28;19929;-44
2021/09/12 07:44:24;;;;;;;;;;;;;;;16.67;87.56;101742.59;5048816;28;19932;-42
2021/09/12 07:46:51;;;;;;;;;;;;;;;16.81;86.46;101733.56;5049898;28;19936;-45
2021/09/12 07:49:17;;;;;;;;;;;;;;;16.96;84.99;101736.88;5049197;28;19928;-45
2021/09/12 07:51:44;;;;;;;;;;;;;;;17.05;84.67;101738.78;5050034;28;19929;-45
2021/09/12 07:54:11;;;;;;;;;;;;;;;17.17;84.84;101738.81;5048411;28;19929;-43
2021/09/12 07:56:38;;;;;;;;;;;;;;;17.35;83.63;101737.31;5049253;28;20418;-42
2021/09/12 07:59:04;;;;;;;;;;;;;;;17.46;83.55;101739.13;5049236;28;20062;-44
2021/09/12 08:01:31;;;;;;;;;;;;;;;17.46;82.01;101736.47;5049786;28;20014;-45
2021/09/12 08:03:58;;;;;;;;;;;;;;;17.49;80.97;101736.25;5049616;28;19959;-44
2021/09/12 08:06:25;;;;;;;;;;;;;;;17.84;82.44;101737.00;5053178;28;19936;-42
2021/09/12 08:08:51;;;;;;;;;;;;;;;17.95;79.89;101736.97;5053860;28;20346;-44
2021/09/12 08:11:18;;;;;;;;;;;;;;;18.16;82.27;101739.69;5052991;28;20398;-45
2021/09/12 08:13:45;;;;;;;;;;;;;;;18.33;80.83;101748.09;5051996;28;19929;-45
2021/09/12 08:16:12;;;;;;;;;;;;;;;18.35;80.02;101743.47;5053563;28;20380;-47
2021/09/12 08:18:39;;;;;;;;;;;;;;;18.53;79.02;101749.06;5052932;28;19925;-43
2021/09/12 08:21:06;;;;;;;;;;;;;;;18.51;78.19;101748.34;5052415;28;20310;-51
2021/09/12 08:23:32;;;;;;;;;;;;;;;18.64;79.20;101754.31;5051874;28;20260;-54
2021/09/12 08:25:59;;;;;;;;;;;;;;;18.88;77.49;101755.88;5052947;28;19924;-47
2021/09/12 08:28:26;;;;;;;;;;;;;;;19.03;77.61;101759.91;5051022;28;20355;-54
2021/09/12 08:30:52;;;;;;;;;;;;;;;19.18;77.68;101759.53;5052751;28;19929;-53
2021/09/12 08:33:19;;;;;;;;;;;;;;;19.35;76.64;101763.38;5046744;28;20157;-55
2021/09/12 08:35:46;;;;;;;;;;;;;;;19.63;74.77;101767.09;5049562;28;20399;-51
2021/09/12 08:38:13;;;;;;;;;;;;;;;19.73;73.80;101764.47;5052017;28;19935;-54
2021/09/12 08:40:40;;;;;;;;;;;;;;;19.96;74.39;101769.56;5051635;28;20431;-55
2021/09/12 08:43:07;;;;;;;;;;;;;;;19.77;72.94;101774.72;5050611;28;20412;-54
2021/09/12 08:45:34;;;;;;;;;;;;;;;19.59;72.78;101777.22;5051378;28;19925;-55
2021/09/12 08:48:01;;;;;;;;;;;;;;;19.58;73.50;101775.53;5052104;28;20315;-54
2021/09/12 08:50:27;;;;;;;;;;;;;;;19.59;73.20;101777.22;5051055;28;20384;-53
2021/09/12 08:52:54;;;;;;;;;;;;;;;19.55;73.45;101785.59;5051401;28;19925;-53
2021/09/12 08:55:21;;;;;;;;;;;;;;;19.65;72.39;101786.50;5051293;28;19971;-54
2021/09/12 08:57:49;;;;;;;;;;;;;;;19.62;72.99;101783.25;5048459;28;19929;-53
2021/09/12 09:00:17;;;;;;;;;;;;;;;19.73;72.06;101783.97;5050148;28;19932;-53
2021/09/12 09:02:44;;;;;;;;;;;;;;;19.92;71.67;101780.53;5050542;28;19929;-44
2021/09/12 09:05:11;;;;;;;;;;;;;;;20.06;72.26;101781.94;5050998;28;19979;-53
2021/09/12 09:07:37;;;;;;;;;;;;;;;20.23;71.25;101782.22;5050861;28;19925;-54
2021/09/12 09:10:17;;;;;;;;;;;;;;;20.41;71.65;101779.69;5051811;28;19940;-53
2021/09/12 09:12:44;;;;;;;;;;;;;;;20.45;71.69;101773.09;5048120;28;19936;-54
2021/09/12 09:15:14;;;;;;;;;;;;;;;20.63;71.00;101772.34;5050478;28;19924;-56
2021/09/12 09:17:43;;;;;;;;;;;;;;;20.48;69.54;101770.13;5051218;28;20016;-53
2021/09/12 09:20:14;;;;;;;;;;;;;;;20.48;69.16;101772.81;5049356;28;19936;-54
2021/09/12 09:22:42;;;;;;;;;;;;;;;20.59;69.21;101771.81;5050952;28;19932;-55
2021/09/12 09:25:09;;;;;;;;;;;;;;;20.51;68.29;101766.34;5049791;28;19982;-56
2021/09/12 09:27:55;;;;;;;;;;;;;;;20.59;69.24;101775.31;5048814;28;19932;-51
2021/09/12 09:30:22;;;;;;;;;;;;;;;20.35;69.06;101778.44;5050165;28;19929;-52
2021/09/12 09:32:48;;;;;;;;;;;;;;;20.54;69.39;101774.06;5049300;28;19940;-55
2021/09/12 09:35:22;;;;;;;;;;;;;;;20.67;68.99;101777.28;5049684;28;19925;-53
2021/09/12 09:37:49;;;;;;;;;;;;;;;20.69;70.14;101778.00;5050789;28;19925;-51
2021/09/12 09:40:16;;;;;;;;;;;;;;;20.74;69.09;101785.59;5049184;28;19976;-55
2021/09/12 09:42:44;;;;;;;;;;;;;;;20.68;70.19;101789.69;5047813;28;19924;-55
2021/09/12 09:45:14;;;;;;;;;;;;;;;20.75;69.33;101784.59;5050775;28;19925;-54
2021/09/12 09:47:42;;;;;;;;;;;;;;;20.54;69.21;101779.41;5050901;28;20284;-51
2021/09/12 09:50:19;;;;;;;;;;;;;;;20.46;70.21;101779.28;5050160;28;19931;-52
2021/09/12 09:52:46;;;;;;;;;;;;;;;20.64;68.90;101774.03;5050680;28;19935;-54
2021/09/12 09:55:15;;;;;;;;;;;;;;;20.68;68.91;101788.78;5049386;28;19924;-54
2021/09/12 09:57:46;;;;;;;;;;;;;;;20.58;68.31;101775.47;5047534;28;19935;-54
2021/09/12 10:00:13;;;;;;;;;;;;;;;20.66;69.01;101780.94;5050659;28;19975;-55
2021/09/12 10:02:40;;;;;;;;;;;;;;;20.50;68.72;101772.66;5050638;28;19925;-55
2021/09/12 10:05:08;;;;;;;;;;;;;;;20.42;69.96;101766.22;5049730;28;20023;-55
2021/09/12 10:07:35;;;;;;;;;;;;;;;20.66;70.71;101767.56;5032502;28;19941;-55
2021/09/12 10:10:03;;;;;;;;;;;;;;;20.78;67.33;101765.59;5050458;28;19928;-55
2021/09/12 10:12:30;;;;;;;;;;;;;;;20.89;68.77;101770.78;5048595;28;19929;-52
2021/09/12 10:14:57;;;;;;;;;;;;;;;21.01;68.02;101767.91;5048528;28;19979;-52
2021/09/12 10:17:29;;;;;;;;;;;;;;;21.13;68.22;101768.56;5048345;28;19982;-52
2021/09/12 10:20:25;;;;;;;;;;;;;;;21.15;67.26;101769.28;5049449;28;19936;-54
2021/09/12 10:22:52;;;;;;;;;;;;;;;20.93;67.20;101769.50;5039762;28;20339;-55
2021/09/12 10:25:20;;;;;;;;;;;;;;;21.07;67.26;101770.00;5048567;28;19925;-55
2021/09/12 10:27:48;;;;;;;;;;;;;;;21.13;66.68;101773.94;5045911;28;19948;-51
2021/09/12 10:30:21;;;;;;;;;;;;;;;21.21;66.14;101777.53;5050190;28;19929;-48
2021/09/12 10:32:49;;;;;;;;;;;;;;;21.24;66.55;101777.25;5050103;28;20276;-44
2021/09/12 10:35:18;;;;;;;;;;;;;;;21.05;66.56;101780.00;5048515;28;19935;-48
2021/09/12 10:37:54;;;;;;;;;;;;;;;20.91;67.64;101773.28;5049265;28;19937;-45
2021/09/12 10:40:20;;;;;;;;;;;;;;;20.97;66.70;101777.22;5049531;28;19986;-45
2021/09/12 10:42:47;;;;;;;;;;;;;;;20.52;67.10;101765.31;5047131;28;19975;-44
2021/09/12 10:45:25;;;;;;;;;;;;;;;20.80;68.05;101774.31;5048957;28;19929;-44
2021/09/12 10:47:52;;;;;;;;;;;;;;;20.95;67.94;101769.34;5048362;28;19928;-44
2021/09/12 10:50:37;;;;;;;;;;;;;;;21.10;67.36;101775.91;5047416;28;19924;-44
2021/09/12 10:53:04;;;;;;;;;;;;;;;21.17;68.27;101778.00;5049973;28;19928;-44
2021/09/12 10:55:48;;;;;;;;;;;;;;;21.22;68.48;101770.38;5049553;28;19925;-46
2021/09/12 10:58:15;;;;;;;;;;;;;;;21.19;66.24;101776.03;5047478;28;19932;-44
2021/09/12 11:00:44;;;;;;;;;;;;;;;21.28;66.93;101772.44;5049079;28;19979;-45
2021/09/12 11:03:15;;;;;;;;;;;;;;;21.20;66.92;101778.56;5049924;28;19924;-55
2021/09/12 11:05:42;;;;;;;;;;;;;;;21.20;66.12;101778.56;5049380;28;19929;-53
2021/09/12 11:08:08;;;;;;;;;;;;;;;21.02;67.59;101773.09;5050101;28;19951;-48
2021/09/12 11:10:42;;;;;;;;;;;;;;;21.13;67.29;101772.09;5048215;28;19929;-55
2021/09/12 11:13:09;;;;;;;;;;;;;;;21.03;68.09;101764.09;5048218;28;20402;-54
2021/09/12 11:15:35;;;;;;;;;;;;;;;21.16;67.98;101768.28;5049629;28;19929;-51
2021/09/12 11:18:02;;;;;;;;;;;;;;;21.20;67.43;101767.00;5050393;28;20668;-54
2021/09/12 11:20:38;;;;;;;;;;;;;;;21.00;67.99;101775.09;5048416;28;20384;-52
2021/09/12 11:23:05;;;;;;;;;;;;;;;21.20;68.78;101769.66;5049476;28;19950;-53
2021/09/12 11:25:32;;;;;;;;;;;;;;;21.54;68.13;101767.28;5049350;28;19928;-53
2021/09/12 11:27:59;;;;;;;;;;;;;;;21.62;67.58;101763.84;5030797;28;19925;-53
2021/09/12 11:30:26;;;;;;;;;;;;;;;21.79;66.39;101762.19;5049751;28;19929;-52
2021/09/12 11:32:53;;;;;;;;;;;;;;;21.84;66.21;101757.25;5048274;28;19924;-53
2021/09/12 11:35:19;;;;;;;;;;;;;;;21.99;66.84;101764.72;5049050;28;19925;-52
2021/09/12 11:37:46;;;;;;;;;;;;;;;21.94;66.11;101765.19;5051485;28;19925;-49
2021/09/12 11:40:14;;;;;;;;;;;;;;;21.92;66.03;101768.03;5056453;28;19948;-53
2021/09/12 11:42:40;;;;;;;;;;;;;;;22.02;66.05;101767.94;5053120;28;19947;-49
2021/09/12 11:45:14;;;;;;;;;;;;;;;21.99;65.79;101770.94;5056074;28;20024;-53
2021/09/12 11:47:40;;;;;;;;;;;;;;;21.85;66.36;101766.09;5056549;28;19932;-51
2021/09/12 11:50:12;;;;;;;;;;;;;;;21.50;66.47;101767.69;5056060;28;19979;-51
2021/09/12 11:52:41;;;;;;;;;;;;;;;21.78;65.68;101777.41;5056133;28;19929;-54
2021/09/12 11:55:23;;;;;;;;;;;;;;;21.90;66.31;101772.66;5054953;28;20380;-54
2021/09/12 11:57:59;;;;;;;;;;;;;;;22.20;66.32;101767.09;5054742;28;19940;-52
2021/09/12 12:00:26;;;;;;;;;;;;;;;22.18;66.01;101769.06;5055932;28;19928;-52
2021/09/12 12:02:53;;;;;;;;;;;;;;;22.21;65.38;101763.41;5055199;28;19929;-54
2021/09/12 12:05:20;;;;;;;;;;;;;;;22.22;65.66;101762.41;5038035;28;19929;-53
2021/09/12 12:07:47;;;;;;;;;;;;;;;22.07;65.27;101762.13;5053277;28;20392;-52
2021/09/12 12:10:32;;;;;;;;;;;;;;;22.01;65.24;101760.91;5054911;28;19925;-50
2021/09/12 12:12:59;;;;;;;;;;;;;;;21.94;65.68;101755.31;5054110;28;19925;-53
2021/09/12 12:15:58;;;;;;;;;;;;;;;22.11;66.06;101759.00;5055713;28;20007;-53
2021/09/12 12:18:25;;;;;;;;;;;;;;;22.27;66.00;101749.41;5032563;28;19979;-51
2021/09/12 12:20:52;;;;;;;;;;;;;;;22.60;64.70;101752.34;5055794;28;19929;-51
2021/09/12 12:23:19;;;;;;;;;;;;;;;23.02;63.02;101751.59;5055247;28;19925;-51
2021/09/12 12:25:47;;;;;;;;;;;;;;;23.16;61.20;101752.00;5055870;28;19929;-53
2021/09/12 12:28:15;;;;;;;;;;;;;;;23.17;61.78;101748.34;5054002;28;19971;-52
2021/09/12 12:30:43;;;;;;;;;;;;;;;23.33;61.39;101747.53;5056077;28;19929;-55
2021/09/12 12:33:10;;;;;;;;;;;;;;;23.36;61.26;101747.25;5056207;28;19929;-54
2021/09/12 12:35:37;;;;;;;;;;;;;;;23.55;62.47;101746.13;5054073;28;19974;-55
2021/09/12 12:38:04;;;;;;;;;;;;;;;23.90;61.58;101746.88;5054368;28;19929;-54